Terminal Aerodrome Forecast
Issued by NWS

Home | Current Version | Previous Version | Text Only | Print | Product List | Glossary On
Versions: 1 2 3 4 5 6 7 8 9 10 11 12 13
000
FTUS42 KGSP 300529
TAFAND
TAF
KAND 300529Z 3006/3106 36004KT P6SM SCT090
     FM302100 34005KT P6SM BKN060
     FM310200 02003KT P6SM SCT080=

USA.gov is the U.S. government's official web portal to all federal, state and local government web resources and services.